createdAt,value
2019-03-27T00:00:23.924Z,9.20
2019-03-27T00:02:52.326Z,9.20
2019-03-27T00:05:20.722Z,9.20
2019-03-27T00:07:49.102Z,9.10
2019-03-27T00:10:17.573Z,9.20
2019-03-27T00:12:45.969Z,9.20
2019-03-27T00:15:14.382Z,9.20
2019-03-27T00:17:42.761Z,9.20
2019-03-27T00:20:11.214Z,9.20
2019-03-27T00:22:39.620Z,9.20
2019-03-27T00:25:08.460Z,9.20
2019-03-27T00:27:36.860Z,9.20
2019-03-27T00:30:06.877Z,9.20
2019-03-27T00:32:35.287Z,9.20
2019-03-27T00:35:04.440Z,9.20
2019-03-27T00:37:32.832Z,9.30
2019-03-27T00:40:01.223Z,9.30
2019-03-27T00:42:29.602Z,9.30
2019-03-27T00:44:57.997Z,9.30
2019-03-27T00:47:26.374Z,9.30
2019-03-27T00:49:54.766Z,9.30
2019-03-27T00:52:23.143Z,9.30
2019-03-27T00:54:51.555Z,9.30
2019-03-27T00:57:19.954Z,9.30
2019-03-27T00:59:48.398Z,9.30
2019-03-27T01:02:16.811Z,9.30
2019-03-27T01:04:45.186Z,9.30
2019-03-27T01:07:13.610Z,9.30
2019-03-27T01:09:42.005Z,9.30
2019-03-27T01:12:10.398Z,9.30
2019-03-27T01:14:38.865Z,9.30
2019-03-27T01:17:07.280Z,9.30
2019-03-27T01:19:35.674Z,9.30
2019-03-27T01:22:04.042Z,9.30
2019-03-27T01:24:32.448Z,9.30
2019-03-27T01:27:00.839Z,9.30
2019-03-27T01:29:29.244Z,9.20
2019-03-27T01:31:57.635Z,9.30
2019-03-27T01:34:26.040Z,9.20
2019-03-27T01:36:54.452Z,9.30
2019-03-27T01:39:22.842Z,9.20
2019-03-27T01:41:51.221Z,9.20
2019-03-27T01:44:19.628Z,9.20
2019-03-27T01:46:48.112Z,9.30
2019-03-27T01:49:16.522Z,9.30
2019-03-27T01:51:44.910Z,9.30
2019-03-27T01:54:13.288Z,9.20
2019-03-27T01:56:41.688Z,9.30
2019-03-27T01:59:10.097Z,9.20
2019-03-27T02:01:38.483Z,9.20
2019-03-27T02:04:06.934Z,9.20
2019-03-27T02:06:35.241Z,9.20
2019-03-27T02:09:04.287Z,9.20
2019-03-27T02:11:32.696Z,9.20
2019-03-27T02:14:01.097Z,9.20
2019-03-27T02:16:29.500Z,9.20
2019-03-27T02:18:57.883Z,9.20
2019-03-27T02:21:26.371Z,9.20
2019-03-27T02:23:54.738Z,9.20
2019-03-27T02:26:23.145Z,9.20
2019-03-27T02:28:51.538Z,9.20
2019-03-27T02:31:19.924Z,9.20
2019-03-27T02:33:48.416Z,9.20
2019-03-27T02:36:16.836Z,9.20
2019-03-27T02:38:45.344Z,9.20
2019-03-27T02:41:13.717Z,9.20
2019-03-27T02:43:42.146Z,9.20
2019-03-27T02:46:23.789Z,9.10
2019-03-27T02:48:40.584Z,9.10
2019-03-27T02:51:08.980Z,9.10
2019-03-27T02:53:37.452Z,9.10
2019-03-27T02:56:05.836Z,9.10
2019-03-27T02:58:34.247Z,9.10
2019-03-27T03:01:02.704Z,9.10
2019-03-27T03:03:31.118Z,9.10
2019-03-27T03:05:59.458Z,9.10
2019-03-27T03:08:27.860Z,9.10
2019-03-27T03:10:56.291Z,9.10
2019-03-27T03:13:24.692Z,9.10
2019-03-27T03:15:53.214Z,9.10
2019-03-27T03:18:21.576Z,9.10
2019-03-27T03:20:49.982Z,9.10
2019-03-27T03:23:18.378Z,9.10
2019-03-27T03:25:46.740Z,9.10
2019-03-27T03:28:15.160Z,9.10
2019-03-27T03:30:43.551Z,9.10
2019-03-27T03:33:11.984Z,9.00
2019-03-27T03:35:40.327Z,9.00
2019-03-27T03:38:08.710Z,9.00
2019-03-27T03:40:37.110Z,8.90
2019-03-27T03:43:05.494Z,8.90
2019-03-27T03:45:33.911Z,8.80
2019-03-27T03:48:02.293Z,8.80
2019-03-27T03:50:36.466Z,8.80
2019-03-27T03:53:06.194Z,8.70
2019-03-27T03:55:35.170Z,8.70
2019-03-27T03:58:03.588Z,8.70
2019-03-27T04:00:32.627Z,8.70
2019-03-27T04:03:01.604Z,8.70
2019-03-27T04:05:30.013Z,8.70
2019-03-27T04:07:58.407Z,8.70
2019-03-27T04:10:26.829Z,8.60
2019-03-27T04:12:55.197Z,8.60
2019-03-27T04:15:23.579Z,8.50
2019-03-27T04:17:51.994Z,8.50
2019-03-27T04:20:20.408Z,8.40
2019-03-27T04:22:48.783Z,8.40
2019-03-27T04:25:18.837Z,8.40
2019-03-27T04:27:47.219Z,8.50
2019-03-27T04:30:15.620Z,8.50
2019-03-27T04:32:44.039Z,8.60
2019-03-27T04:35:12.427Z,8.60
2019-03-27T04:37:40.812Z,8.60
2019-03-27T04:40:09.232Z,8.60
2019-03-27T04:42:37.738Z,8.60
2019-03-27T04:45:06.061Z,8.60
2019-03-27T04:47:34.476Z,8.60
2019-03-27T04:50:03.302Z,8.60
2019-03-27T04:52:31.706Z,8.60
2019-03-27T04:55:00.095Z,8.70
2019-03-27T04:57:28.564Z,8.80
2019-03-27T04:59:56.967Z,8.90
2019-03-27T05:02:25.342Z,8.90
2019-03-27T05:04:54.103Z,8.90
2019-03-27T05:07:22.483Z,8.90
2019-03-27T05:09:50.863Z,8.90
2019-03-27T05:12:19.271Z,8.90
2019-03-27T05:14:47.649Z,8.90
2019-03-27T05:17:16.062Z,8.90
2019-03-27T05:19:44.538Z,8.90
2019-03-27T05:22:12.874Z,9.00
2019-03-27T05:24:41.279Z,9.00
2019-03-27T05:27:09.645Z,9.00
2019-03-27T05:29:38.047Z,8.90
2019-03-27T05:32:06.447Z,8.90
2019-03-27T05:34:34.820Z,8.90
2019-03-27T05:37:03.231Z,8.80
2019-03-27T05:39:31.606Z,8.70
2019-03-27T05:42:00.011Z,8.70
2019-03-27T05:44:28.451Z,8.80
2019-03-27T05:46:56.861Z,8.80
2019-03-27T05:49:25.244Z,8.80
2019-03-27T05:51:53.618Z,8.80
2019-03-27T05:54:22.043Z,8.80
2019-03-27T05:56:50.420Z,8.90
2019-03-27T05:59:18.817Z,9.00
2019-03-27T06:01:47.213Z,9.00
2019-03-27T06:04:15.599Z,9.00
2019-03-27T06:06:44.007Z,9.00
2019-03-27T06:09:12.425Z,9.00
2019-03-27T06:11:40.815Z,9.00
2019-03-27T06:14:09.170Z,9.10
2019-03-27T06:16:37.584Z,9.10
2019-03-27T06:19:05.958Z,9.20
2019-03-27T06:21:34.366Z,9.20
2019-03-27T06:24:02.749Z,9.20
2019-03-27T06:26:31.173Z,9.20
2019-03-27T06:28:59.568Z,9.20
2019-03-27T06:31:28.034Z,9.30
2019-03-27T06:33:56.464Z,9.30
2019-03-27T06:36:24.924Z,9.30
2019-03-27T06:38:53.324Z,9.30
2019-03-27T06:41:21.779Z,9.40
2019-03-27T06:43:50.161Z,9.40
2019-03-27T06:46:18.568Z,9.40
2019-03-27T06:48:46.971Z,9.50
2019-03-27T06:51:15.621Z,9.50
2019-03-27T06:53:44.015Z,9.50
2019-03-27T06:56:12.399Z,9.70
2019-03-27T06:58:53.601Z,9.80
2019-03-27T07:01:10.864Z,9.90
2019-03-27T07:03:39.276Z,10.00
2019-03-27T07:06:07.686Z,10.10
2019-03-27T07:08:36.103Z,10.30
2019-03-27T07:11:04.560Z,10.40
2019-03-27T07:13:32.968Z,10.60
2019-03-27T07:16:06.217Z,10.80
2019-03-27T07:18:40.026Z,10.90
2019-03-27T07:21:04.731Z,11.10
2019-03-27T07:23:33.117Z,11.20
2019-03-27T07:26:01.530Z,11.20
2019-03-27T07:28:29.947Z,11.20
2019-03-27T07:30:58.397Z,11.20
2019-03-27T07:33:26.769Z,11.20
2019-03-27T07:35:55.180Z,11.20
2019-03-27T07:38:23.629Z,11.20
2019-03-27T07:40:52.030Z,11.20
2019-03-27T07:43:20.432Z,11.30
2019-03-27T07:45:48.807Z,11.40
2019-03-27T07:48:17.215Z,11.50
2019-03-27T07:50:45.630Z,11.60
2019-03-27T07:53:14.017Z,11.70
2019-03-27T07:55:42.411Z,11.70
2019-03-27T07:58:10.803Z,11.80
2019-03-27T08:00:39.219Z,11.80
2019-03-27T08:03:07.703Z,11.80
2019-03-27T08:05:36.090Z,11.90
2019-03-27T08:08:04.487Z,12.00
2019-03-27T08:10:32.895Z,12.10
2019-03-27T08:13:01.366Z,12.20
2019-03-27T08:15:29.823Z,12.30
2019-03-27T08:17:58.242Z,12.40
2019-03-27T08:20:26.611Z,12.50
2019-03-27T08:22:55.087Z,12.60
2019-03-27T08:25:23.547Z,12.60
2019-03-27T08:27:51.956Z,12.70
2019-03-27T08:30:20.382Z,12.90
2019-03-27T08:32:48.873Z,12.90
2019-03-27T08:35:17.239Z,12.90
2019-03-27T08:37:45.657Z,13.00
2019-03-27T08:40:14.064Z,13.10
2019-03-27T08:42:42.480Z,13.20
2019-03-27T08:45:11.224Z,13.30
2019-03-27T08:47:39.627Z,13.30
2019-03-27T08:50:08.850Z,13.30
2019-03-27T08:52:37.255Z,13.40
2019-03-27T08:55:06.427Z,13.40
2019-03-27T08:57:34.901Z,13.50
2019-03-27T09:00:04.092Z,13.50
2019-03-27T09:02:32.480Z,13.40
2019-03-27T09:05:00.916Z,13.40
2019-03-27T09:07:29.295Z,13.40
2019-03-27T09:09:57.692Z,13.50
2019-03-27T09:12:26.108Z,13.50
2019-03-27T09:14:54.604Z,13.60
2019-03-27T09:17:22.999Z,13.60
2019-03-27T09:19:51.407Z,13.50
2019-03-27T09:22:19.840Z,13.60
2019-03-27T09:24:48.273Z,13.60
2019-03-27T09:27:16.694Z,13.70
2019-03-27T09:29:45.080Z,13.70
2019-03-27T09:32:13.498Z,13.70
2019-03-27T09:34:41.944Z,13.60
2019-03-27T09:37:10.366Z,13.70
2019-03-27T09:39:38.815Z,13.70
2019-03-27T09:42:07.314Z,13.80
2019-03-27T09:44:55.130Z,13.90
2019-03-27T09:47:23.531Z,14.00
2019-03-27T09:49:51.952Z,14.20
2019-03-27T09:52:20.333Z,14.30
2019-03-27T09:54:48.734Z,14.50
2019-03-27T09:57:17.164Z,14.70
2019-03-27T09:59:45.677Z,14.80
2019-03-27T10:02:14.113Z,14.80
2019-03-27T10:04:42.509Z,14.90
2019-03-27T10:07:10.900Z,14.90
2019-03-27T10:09:39.393Z,14.90
2019-03-27T10:12:07.859Z,14.90
2019-03-27T10:14:36.285Z,14.90
2019-03-27T10:17:04.779Z,15.00
2019-03-27T10:19:33.173Z,15.10
2019-03-27T10:22:01.581Z,15.20
2019-03-27T10:24:29.965Z,15.10
2019-03-27T10:26:58.372Z,15.10
2019-03-27T10:29:26.863Z,15.00
2019-03-27T10:31:55.254Z,14.90
2019-03-27T10:34:23.664Z,14.90
2019-03-27T10:36:52.060Z,14.70
2019-03-27T10:39:20.462Z,14.80
2019-03-27T10:41:48.861Z,15.10
2019-03-27T10:44:17.563Z,15.20
2019-03-27T10:46:46.141Z,15.30
2019-03-27T10:49:14.527Z,15.40
2019-03-27T10:51:42.931Z,15.50
2019-03-27T10:54:11.351Z,15.60
2019-03-27T10:56:39.759Z,15.70
2019-03-27T10:59:08.285Z,15.80
2019-03-27T11:01:36.778Z,15.90
2019-03-27T11:04:05.182Z,16.00
2019-03-27T11:06:33.562Z,16.10
2019-03-27T11:09:01.972Z,16.10
2019-03-27T11:11:30.449Z,15.90
2019-03-27T11:13:58.960Z,16.00
2019-03-27T11:16:27.453Z,16.10
2019-03-27T11:18:55.935Z,16.30
2019-03-27T11:21:24.341Z,16.40
2019-03-27T11:23:52.753Z,16.50
2019-03-27T11:26:21.158Z,16.40
2019-03-27T11:28:49.566Z,16.40
2019-03-27T11:31:17.964Z,16.20
2019-03-27T11:33:46.345Z,16.20
2019-03-27T11:36:14.719Z,16.30
2019-03-27T11:38:43.136Z,16.40
2019-03-27T11:41:12.337Z,16.50
2019-03-27T11:43:53.895Z,16.60
2019-03-27T11:46:10.862Z,16.60
2019-03-27T11:48:39.276Z,16.70
2019-03-27T11:51:07.675Z,16.20
2019-03-27T11:53:36.088Z,16.20
2019-03-27T11:56:04.560Z,16.30
2019-03-27T11:58:32.903Z,16.60
2019-03-27T12:01:01.310Z,16.80
2019-03-27T12:03:29.699Z,16.90
2019-03-27T12:05:58.107Z,17.00
2019-03-27T12:08:26.497Z,17.00
2019-03-27T12:10:54.936Z,17.00
2019-03-27T12:13:23.340Z,16.90
2019-03-27T12:15:51.763Z,17.00
2019-03-27T12:18:20.185Z,17.00
2019-03-27T12:20:58.814Z,17.00
2019-03-27T12:23:18.821Z,16.80
2019-03-27T12:25:47.301Z,16.80
2019-03-27T12:28:15.703Z,16.80
2019-03-27T12:30:44.080Z,16.70
2019-03-27T12:33:12.489Z,16.60
2019-03-27T12:35:40.917Z,16.50
2019-03-27T12:38:09.296Z,16.20
2019-03-27T12:40:37.703Z,16.10
2019-03-27T12:43:06.106Z,16.10
2019-03-27T12:45:34.612Z,16.40
2019-03-27T12:48:03.021Z,16.60
2019-03-27T12:50:31.399Z,16.70
2019-03-27T12:52:59.826Z,16.70
2019-03-27T12:55:28.189Z,16.70
2019-03-27T12:57:56.639Z,16.70
2019-03-27T13:00:25.067Z,16.60
2019-03-27T13:02:53.429Z,16.60
2019-03-27T13:05:21.842Z,16.60
2019-03-27T13:07:50.547Z,16.70
2019-03-27T13:10:18.937Z,16.80
2019-03-27T13:12:47.319Z,17.00
2019-03-27T13:15:15.841Z,17.00
2019-03-27T13:17:44.256Z,16.70
2019-03-27T13:20:12.670Z,16.40
2019-03-27T13:22:41.084Z,16.40
2019-03-27T13:25:09.559Z,16.50
2019-03-27T13:27:38.430Z,16.50
2019-03-27T13:30:08.451Z,16.70
2019-03-27T13:32:36.846Z,16.80
2019-03-27T13:35:06.695Z,16.90
2019-03-27T13:37:35.085Z,17.00
2019-03-27T13:40:06.563Z,17.00
2019-03-27T13:42:35.063Z,17.20
2019-03-27T13:45:04.460Z,17.40
2019-03-27T13:47:32.887Z,17.80
2019-03-27T13:50:01.280Z,18.10
2019-03-27T13:52:29.697Z,18.50
2019-03-27T13:54:58.078Z,18.60
2019-03-27T13:57:26.487Z,19.00
2019-03-27T13:59:54.877Z,19.20
2019-03-27T14:02:23.252Z,19.10
2019-03-27T14:04:51.671Z,18.90
2019-03-27T14:07:20.232Z,18.60
2019-03-27T14:09:48.617Z,18.40
2019-03-27T14:12:17.024Z,18.20
2019-03-27T14:14:50.672Z,17.90
2019-03-27T14:17:16.383Z,17.70
2019-03-27T14:19:44.772Z,17.50
2019-03-27T14:22:13.255Z,17.40
2019-03-27T14:24:41.633Z,17.30
2019-03-27T14:27:10.113Z,17.10
2019-03-27T14:29:38.538Z,17.00
2019-03-27T14:32:06.954Z,17.00
2019-03-27T14:34:35.336Z,16.90
2019-03-27T14:37:03.729Z,16.90
2019-03-27T14:39:32.148Z,16.80
2019-03-27T14:42:00.532Z,16.70
2019-03-27T14:44:29.011Z,16.60
2019-03-27T14:46:57.396Z,16.50
2019-03-27T14:49:25.904Z,16.40
2019-03-27T14:52:07.394Z,16.40
2019-03-27T14:54:24.345Z,16.20
2019-03-27T14:56:52.745Z,16.10
2019-03-27T14:59:21.168Z,15.80
2019-03-27T15:01:49.648Z,15.60
2019-03-27T15:04:18.123Z,15.60
2019-03-27T15:06:46.551Z,15.30
2019-03-27T15:09:14.974Z,15.20
2019-03-27T15:11:43.371Z,15.20
2019-03-27T15:14:11.771Z,15.10
2019-03-27T15:16:40.191Z,15.10
2019-03-27T15:19:08.596Z,15.10
2019-03-27T15:21:37.036Z,15.10
2019-03-27T15:24:05.411Z,15.20
2019-03-27T15:26:33.864Z,15.20
2019-03-27T15:29:02.291Z,15.20
2019-03-27T15:31:30.656Z,15.20
2019-03-27T15:33:59.076Z,14.80
2019-03-27T15:36:27.559Z,14.90
2019-03-27T15:38:55.897Z,15.00
2019-03-27T15:41:24.317Z,15.10
2019-03-27T15:43:52.719Z,15.60
2019-03-27T15:46:21.099Z,15.80
2019-03-27T15:48:49.513Z,15.90
2019-03-27T15:51:17.897Z,15.90
2019-03-27T15:53:47.404Z,16.00
2019-03-27T15:56:16.110Z,15.90
2019-03-27T15:58:44.541Z,15.90
2019-03-27T16:01:12.947Z,15.90
2019-03-27T16:03:41.323Z,15.80
2019-03-27T16:06:09.726Z,15.70
2019-03-27T16:08:38.314Z,15.70
2019-03-27T16:11:06.800Z,15.60
2019-03-27T16:13:35.180Z,15.60
2019-03-27T16:16:03.600Z,15.60
2019-03-27T16:18:31.990Z,15.40
2019-03-27T16:21:00.404Z,15.10
2019-03-27T16:23:32.070Z,14.90
2019-03-27T16:25:58.867Z,14.70
2019-03-27T16:28:27.294Z,14.60
2019-03-27T16:30:55.779Z,14.40
2019-03-27T16:33:24.178Z,14.40
2019-03-27T16:35:53.613Z,14.00
2019-03-27T16:38:21.992Z,13.70
2019-03-27T16:40:50.471Z,13.30
2019-03-27T16:43:18.952Z,13.10
2019-03-27T16:45:48.312Z,12.90
2019-03-27T16:48:16.697Z,12.80
2019-03-27T16:50:45.106Z,12.70
2019-03-27T16:53:13.498Z,12.50
2019-03-27T16:55:41.903Z,12.30
2019-03-27T16:58:10.296Z,12.20
2019-03-27T17:00:38.721Z,12.20
2019-03-27T17:03:07.128Z,12.20
2019-03-27T17:05:35.514Z,12.00
2019-03-27T17:08:03.934Z,12.00
2019-03-27T17:10:32.427Z,12.20
2019-03-27T17:13:00.921Z,12.40
2019-03-27T17:15:29.370Z,12.60
2019-03-27T17:17:57.789Z,12.70
2019-03-27T17:20:26.201Z,12.90
2019-03-27T17:22:54.593Z,12.90
2019-03-27T17:25:23.016Z,12.90
2019-03-27T17:27:51.395Z,12.80
2019-03-27T17:30:19.805Z,12.80
2019-03-27T17:32:48.216Z,12.80
2019-03-27T17:35:16.602Z,12.90
2019-03-27T17:37:45.263Z,12.90
2019-03-27T17:40:13.693Z,12.90
2019-03-27T17:42:42.104Z,12.80
2019-03-27T17:45:10.822Z,12.70
2019-03-27T17:47:39.266Z,12.70
2019-03-27T17:50:07.656Z,12.60
2019-03-27T17:52:38.206Z,12.50
2019-03-27T17:55:07.777Z,12.50
2019-03-27T17:57:36.263Z,12.40
2019-03-27T18:00:11.356Z,12.30
2019-03-27T18:02:39.834Z,12.20
2019-03-27T18:05:08.446Z,12.10
2019-03-27T18:07:37.230Z,12.00
2019-03-27T18:10:06.769Z,11.90
2019-03-27T18:12:35.165Z,11.90
2019-03-27T18:15:04.655Z,11.80
2019-03-27T18:17:33.041Z,11.80
2019-03-27T18:20:01.442Z,11.80
2019-03-27T18:22:29.824Z,11.70
2019-03-27T18:24:58.321Z,11.70
2019-03-27T18:27:26.815Z,11.70
2019-03-27T18:29:55.285Z,11.70
2019-03-27T18:32:23.702Z,11.70
2019-03-27T18:34:52.130Z,11.60
2019-03-27T18:37:20.565Z,11.60
2019-03-27T18:39:49.113Z,11.50
2019-03-27T18:42:17.611Z,11.50
2019-03-27T18:44:46.011Z,11.50
2019-03-27T18:47:14.455Z,11.60
2019-03-27T18:49:42.878Z,11.50
2019-03-27T18:52:11.330Z,11.60
2019-03-27T18:54:39.739Z,11.60
2019-03-27T18:57:08.165Z,11.60
2019-03-27T18:59:36.611Z,11.60
2019-03-27T19:02:05.058Z,11.70
2019-03-27T19:04:33.431Z,11.70
2019-03-27T19:07:01.981Z,11.70
2019-03-27T19:09:30.364Z,11.70
2019-03-27T19:11:58.773Z,11.70
2019-03-27T19:14:27.259Z,11.70
2019-03-27T19:16:55.753Z,11.70
2019-03-27T19:19:24.164Z,11.60
2019-03-27T19:21:52.677Z,11.70
2019-03-27T19:24:21.276Z,11.60
2019-03-27T19:26:49.658Z,11.60
2019-03-27T19:29:18.164Z,11.60
2019-03-27T19:31:46.571Z,11.50
2019-03-27T19:34:15.017Z,11.50
2019-03-27T19:36:43.396Z,11.50
2019-03-27T19:39:11.928Z,11.50
2019-03-27T19:41:40.366Z,11.40
2019-03-27T19:44:08.796Z,11.40
2019-03-27T19:46:37.195Z,11.40
2019-03-27T19:49:05.599Z,11.40
2019-03-27T19:51:34.114Z,11.40
2019-03-27T19:54:02.566Z,11.40
2019-03-27T19:56:30.988Z,11.40
2019-03-27T19:58:59.419Z,11.40
2019-03-27T20:01:27.872Z,11.40
2019-03-27T20:03:56.316Z,11.40
2019-03-27T20:06:24.727Z,11.40
2019-03-27T20:08:56.491Z,11.40
2019-03-27T20:11:23.294Z,11.40
2019-03-27T20:13:51.688Z,11.40
2019-03-27T20:16:20.120Z,11.50
2019-03-27T20:18:48.572Z,11.40
2019-03-27T20:21:17.037Z,11.40
2019-03-27T20:23:45.434Z,11.30
2019-03-27T20:26:13.844Z,11.30
2019-03-27T20:28:42.232Z,11.20
2019-03-27T20:31:10.756Z,11.30
2019-03-27T20:33:39.174Z,11.30
2019-03-27T20:36:08.553Z,11.20
2019-03-27T20:38:37.178Z,11.30
2019-03-27T20:41:05.586Z,11.20
2019-03-27T20:43:33.990Z,11.10
2019-03-27T20:46:02.383Z,11.20
2019-03-27T20:48:30.833Z,11.20
2019-03-27T20:50:59.242Z,11.20
2019-03-27T20:53:27.670Z,11.20
2019-03-27T20:55:56.077Z,11.20
2019-03-27T20:58:24.540Z,11.20
2019-03-27T21:00:52.983Z,11.20
2019-03-27T21:03:21.406Z,11.30
2019-03-27T21:05:49.806Z,11.20
2019-03-27T21:08:18.247Z,11.30
2019-03-27T21:10:46.771Z,11.30
2019-03-27T21:13:15.362Z,11.30
2019-03-27T21:15:43.776Z,11.30
2019-03-27T21:18:12.191Z,11.30
2019-03-27T21:20:40.572Z,11.30
2019-03-27T21:23:08.988Z,11.30
2019-03-27T21:25:37.428Z,11.30
2019-03-27T21:28:05.848Z,11.30
2019-03-27T21:30:34.241Z,11.30
2019-03-27T21:33:02.670Z,11.20
2019-03-27T21:35:31.126Z,11.20
2019-03-27T21:37:59.594Z,11.20
2019-03-27T21:40:28.045Z,11.20
2019-03-27T21:42:56.638Z,11.20
2019-03-27T21:45:25.106Z,11.20
2019-03-27T21:47:53.600Z,11.20
2019-03-27T21:50:22.068Z,11.20
2019-03-27T21:53:00.453Z,11.20
2019-03-27T21:55:22.788Z,11.20
2019-03-27T21:57:50.821Z,11.20
2019-03-27T22:00:36.337Z,11.20
2019-03-27T22:03:05.070Z,11.20
2019-03-27T22:05:33.532Z,11.20
2019-03-27T22:08:01.989Z,11.20
2019-03-27T22:10:30.478Z,11.10
2019-03-27T22:12:59.042Z,11.20
2019-03-27T22:15:27.527Z,11.10
2019-03-27T22:17:55.984Z,11.10
2019-03-27T22:20:24.441Z,11.10
2019-03-27T22:22:52.885Z,11.20
2019-03-27T22:25:21.341Z,11.20
2019-03-27T22:27:49.825Z,11.20
2019-03-27T22:30:18.273Z,11.20
2019-03-27T22:32:46.748Z,11.20
2019-03-27T22:35:15.168Z,11.20
2019-03-27T22:37:43.623Z,11.20
2019-03-27T22:40:12.092Z,11.10
2019-03-27T22:42:40.595Z,11.10
2019-03-27T22:45:09.066Z,11.10
2019-03-27T22:47:37.545Z,11.10
2019-03-27T22:50:08.930Z,11.10
2019-03-27T22:52:37.361Z,11.10
2019-03-27T22:55:07.313Z,11.10
2019-03-27T22:57:35.740Z,11.10
2019-03-27T23:00:09.529Z,11.10
2019-03-27T23:02:37.956Z,11.10
2019-03-27T23:05:06.789Z,11.10
2019-03-27T23:07:35.372Z,11.10
2019-03-27T23:10:05.224Z,11.10
2019-03-27T23:12:33.769Z,11.10
2019-03-27T23:15:02.224Z,11.10
2019-03-27T23:17:30.690Z,11.10
2019-03-27T23:19:59.149Z,11.00
2019-03-27T23:22:27.623Z,11.00
2019-03-27T23:24:56.073Z,11.00
2019-03-27T23:27:24.541Z,11.00
2019-03-27T23:29:53.037Z,11.00
2019-03-27T23:32:21.493Z,11.00
2019-03-27T23:34:49.959Z,11.00
2019-03-27T23:37:18.418Z,11.00
2019-03-27T23:39:46.850Z,11.00
2019-03-27T23:42:16.339Z,10.90
2019-03-27T23:44:45.050Z,10.90
2019-03-27T23:47:14.413Z,10.90
2019-03-27T23:49:42.879Z,10.90
2019-03-27T23:52:11.321Z,10.90
2019-03-27T23:54:39.788Z,10.90
2019-03-27T23:57:08.266Z,10.90
2019-03-27T23:59:36.732Z,10.90
